Time;durP1;ratioP1;P1;durP2;ratioP2;P2;SDS_P1;SDS_P2;PMS_P1;PMS_P2;Temp;Humidity;BMP_temperature;BMP_pressure;BME280_temperature;BME280_humidity;BME280_pressure;Samples;Min_cycle;Max_cycle;Signal;HPM_P1;HPM_P2
2022/06/05 00:01:15;;;;;;;7.20;6.47;;;19.10;97.60;;;;;;5135119;27;20977;-64
2022/06/05 00:03:53;;;;;;;7.77;6.50;;;19.10;98.00;;;;;;5135829;27;20490;-65
2022/06/05 00:06:28;;;;;;;7.70;6.80;;;19.10;97.80;;;;;;5135107;27;20429;-66
2022/06/05 00:09:13;;;;;;;7.90;6.00;;;19.10;97.70;;;;;;5135090;27;20524;-64
2022/06/05 00:11:49;;;;;;;9.80;6.77;;;19.00;97.70;;;;;;5135105;27;20588;-69
2022/06/05 00:14:16;;;;;;;8.67;6.17;;;19.00;97.80;;;;;;5132738;27;20437;-65
2022/06/05 00:16:44;;;;;;;10.87;6.93;;;19.00;97.80;;;;;;5135141;27;20826;-66
2022/06/05 00:19:12;;;;;;;8.63;6.57;;;19.00;97.70;;;;;;5115296;28;20439;-64
2022/06/05 00:21:39;;;;;;;7.90;6.70;;;19.00;97.60;;;;;;5114439;28;20972;-64
2022/06/05 00:24:06;;;;;;;8.07;6.70;;;19.00;97.50;;;;;;5134202;27;20436;-64
2022/06/05 00:26:48;;;;;;;7.90;5.37;;;18.90;97.40;;;;;;5135108;27;20528;-64
2022/06/05 00:29:36;;;;;;;8.00;7.00;;;18.90;97.50;;;;;;5134923;27;20524;-64
2022/06/05 00:32:10;;;;;;;7.23;6.53;;;18.80;97.70;;;;;;5134303;27;20978;-64
2022/06/05 00:34:39;;;;;;;8.23;5.50;;;18.80;98.10;;;;;;5135135;27;20827;-64
2022/06/05 00:37:21;;;;;;;7.20;6.50;;;18.60;98.20;;;;;;5134486;27;20517;-64
2022/06/05 00:39:57;;;;;;;7.07;6.30;;;18.50;98.40;;;;;;5135073;27;20429;-64
2022/06/05 00:42:27;;;;;;;7.67;6.80;;;18.40;98.60;;;;;;5134335;27;20859;-64
2022/06/05 00:44:56;;;;;;;6.73;5.97;;;18.50;98.50;;;;;;5135002;27;20437;-64
2022/06/05 00:47:26;;;;;;;7.30;6.60;;;18.40;98.70;;;;;;5134185;27;20465;-64
2022/06/05 00:49:58;;;;;;;7.33;6.63;;;18.40;98.70;;;;;;5134890;27;20441;-64
2022/06/05 00:52:27;;;;;;;8.10;6.53;;;18.30;99.40;;;;;;5133971;27;20480;-64
2022/06/05 00:54:54;;;;;;;6.50;5.33;;;18.30;99.40;;;;;;5134501;27;20548;-64
2022/06/05 00:57:22;;;;;;;8.70;7.20;;;18.20;99.20;;;;;;5134167;27;20528;-66
2022/06/05 00:59:51;;;;;;;7.23;5.80;;;18.30;99.40;;;;;;5134652;27;20441;-65
2022/06/05 01:02:19;;;;;;;9.07;6.87;;;18.30;99.60;;;;;;5134524;27;20445;-65
2022/06/05 01:04:50;;;;;;;8.27;7.07;;;18.30;99.80;;;;;;5134008;27;20461;-64
2022/06/05 01:07:20;;;;;;;8.43;7.00;;;18.30;99.80;;;;;;5134423;27;20961;-64
2022/06/05 01:09:49;;;;;;;7.20;6.50;;;18.40;99.70;;;;;;5133945;27;20484;-64
2022/06/05 01:12:26;;;;;;;7.53;6.63;;;18.30;99.50;;;;;;5134275;27;20549;-64
2022/06/05 01:15:02;;;;;;;8.57;7.07;;;18.30;99.30;;;;;;5133865;27;20429;-65
2022/06/05 01:17:35;;;;;;;6.67;6.07;;;18.30;99.20;;;;;;5134371;27;20460;-64
2022/06/05 01:20:16;;;;;;;8.10;6.60;;;18.30;99.20;;;;;;5133691;27;20472;-64
2022/06/05 01:23:16;;;;;;;6.50;5.23;;;18.30;99.00;;;;;;5134153;27;20460;-70
2022/06/05 01:25:56;;;;;;;5.97;5.37;;;18.20;98.70;;;;;;5113801;28;20453;-64
2022/06/05 01:28:27;;;;;;;6.97;6.33;;;18.20;98.70;;;;;;5118011;27;20503;-64
2022/06/05 01:31:03;;;;;;;8.70;6.10;;;18.20;98.70;;;;;;5133960;27;20512;-64
2022/06/05 01:33:32;;;;;;;8.23;6.00;;;18.10;99.20;;;;;;5132443;27;20433;-64
2022/06/05 01:36:05;;;;;;;14.37;6.10;;;18.10;99.10;;;;;;5133963;27;20451;-64
2022/06/05 01:38:41;;;;;;;9.00;5.33;;;18.00;99.10;;;;;;5133357;27;20461;-64
2022/06/05 01:41:13;;;;;;;8.40;5.70;;;18.00;99.10;;;;;;5133788;27;20523;-64
2022/06/05 01:43:45;;;;;;;5.63;5.13;;;18.00;99.00;;;;;;5133373;27;20430;-64
2022/06/05 01:46:18;;;;;;;5.80;5.20;;;18.00;99.10;;;;;;5133792;27;20437;-65
2022/06/05 01:48:50;;;;;;;6.30;5.57;;;18.00;99.10;;;;;;5132752;27;20482;-64
2022/06/05 01:51:22;;;;;;;6.90;6.20;;;18.00;99.10;;;;;;5133627;27;20569;-64
2022/06/05 01:53:54;;;;;;;6.67;5.97;;;18.00;98.70;;;;;;5131243;27;20971;-65
2022/06/05 01:56:29;;;;;;;5.70;5.10;;;17.90;98.70;;;;;;5122335;27;20433;-64
2022/06/05 01:59:02;;;;;;;6.20;5.53;;;17.80;98.70;;;;;;5133475;27;20440;-65
2022/06/05 02:01:34;;;;;;;9.20;5.70;;;17.80;98.70;;;;;;5131551;27;20948;-65
2022/06/05 02:04:07;;;;;;;6.53;5.20;;;17.70;98.70;;;;;;5133243;27;20447;-64
2022/06/05 02:06:39;;;;;;;7.30;6.60;;;17.70;98.70;;;;;;5133146;27;20525;-64
2022/06/05 02:09:11;;;;;;;6.77;5.50;;;17.70;99.00;;;;;;5134010;27;20527;-64
2022/06/05 02:11:39;;;;;;;7.43;6.00;;;17.80;99.20;;;;;;5132633;27;20974;-64
2022/06/05 02:14:09;;;;;;;7.83;5.73;;;17.80;99.20;;;;;;5133750;27;20467;-64
2022/06/05 02:16:39;;;;;;;6.53;5.73;;;17.70;99.00;;;;;;5133091;27;20793;-64
2022/06/05 02:19:10;;;;;;;7.33;6.67;;;17.80;99.30;;;;;;5132702;28;20508;-64
2022/06/05 02:21:38;;;;;;;8.80;6.37;;;17.70;99.50;;;;;;5132496;28;20516;-64
2022/06/05 02:24:07;;;;;;;6.93;6.23;;;17.70;99.60;;;;;;5132563;28;20434;-64
2022/06/05 02:26:34;;;;;;;6.30;5.70;;;17.70;99.30;;;;;;5133164;28;20422;-65
2022/06/05 02:29:03;;;;;;;7.90;6.63;;;17.70;99.20;;;;;;5133066;27;20457;-65
2022/06/05 02:31:40;;;;;;;8.87;6.70;;;17.70;99.10;;;;;;5132063;27;20522;-64
2022/06/05 02:34:16;;;;;;;6.90;5.13;;;17.70;98.90;;;;;;5132913;28;20597;-64
2022/06/05 02:36:52;;;;;;;7.70;6.33;;;17.60;98.70;;;;;;5132463;27;20426;-67
2022/06/05 02:39:28;;;;;;;8.97;7.83;;;17.50;98.80;;;;;;5133123;28;20432;-65
2022/06/05 02:42:02;;;;;;;10.67;7.57;;;17.50;99.20;;;;;;5133310;28;20432;-64
2022/06/05 02:44:38;;;;;;;7.40;6.67;;;17.50;99.40;;;;;;5134571;27;20532;-64
2022/06/05 02:47:22;;;;;;;6.87;6.17;;;17.40;99.50;;;;;;5137099;27;20790;-64
2022/06/05 02:49:56;;;;;;;7.07;5.77;;;17.40;99.50;;;;;;5135105;27;21009;-64
2022/06/05 02:52:25;;;;;;;7.93;6.50;;;17.40;99.30;;;;;;5136574;27;20520;-66
2022/06/05 02:54:58;;;;;;;7.50;6.70;;;17.40;99.30;;;;;;5136499;27;20521;-64
2022/06/05 02:57:25;;;;;;;7.23;6.57;;;17.40;99.80;;;;;;5137426;27;20433;-65
2022/06/05 02:59:53;;;;;;;7.17;6.47;;;17.40;99.70;;;;;;5136482;27;20517;-64
2022/06/05 03:05:05;;;;;;;7.87;6.57;;;17.40;99.90;;;;;;5136844;27;20755;-64
2022/06/05 03:07:32;;;;;;;7.77;7.07;;;17.40;99.90;;;;;;5136322;27;20604;-64
2022/06/05 03:09:59;;;;;;;6.70;5.73;;;17.40;99.80;;;;;;5137267;27;20610;-64
2022/06/05 03:12:27;;;;;;;7.80;5.93;;;17.40;99.60;;;;;;5135902;27;20954;-65
2022/06/05 03:15:00;;;;;;;6.40;5.80;;;17.40;99.30;;;;;;5137028;27;20851;-64
2022/06/05 03:17:27;;;;;;;7.40;6.70;;;17.30;99.30;;;;;;5136099;27;20429;-64
2022/06/05 03:19:54;;;;;;;7.03;6.43;;;17.30;99.50;;;;;;5136944;27;20429;-64
2022/06/05 03:22:21;;;;;;;6.57;5.87;;;17.20;99.60;;;;;;5135519;27;20464;-64
2022/06/05 03:24:48;;;;;;;6.97;6.27;;;17.20;99.90;;;;;;5136955;27;20468;-65
2022/06/05 03:27:15;;;;;;;6.80;6.20;;;17.20;99.90;;;;;;5136184;27;20501;-64
2022/06/05 03:29:42;;;;;;;8.53;6.87;;;17.20;99.90;;;;;;5136912;27;20473;-64
2022/06/05 03:32:10;;;;;;;8.43;6.83;;;17.20;99.90;;;;;;5135690;27;20552;-64
2022/06/05 03:34:37;;;;;;;8.30;7.50;;;17.20;99.90;;;;;;5136764;27;20859;-64
2022/06/05 03:37:05;;;;;;;7.27;6.10;;;17.10;99.90;;;;;;5135910;27;20524;-64
2022/06/05 03:39:32;;;;;;;9.20;8.30;;;17.10;99.90;;;;;;5136806;27;20432;-64
2022/06/05 03:41:59;;;;;;;8.47;7.37;;;17.20;99.90;;;;;;5135799;27;20532;-64
2022/06/05 03:44:26;;;;;;;10.33;8.90;;;17.10;99.90;;;;;;5136487;27;20472;-64
2022/06/05 03:46:52;;;;;;;7.93;7.13;;;17.20;99.90;;;;;;5136240;27;20921;-65
2022/06/05 03:49:21;;;;;;;9.57;7.70;;;17.30;99.90;;;;;;5135770;27;20848;-64
2022/06/05 03:51:48;;;;;;;8.00;7.17;;;17.30;99.90;;;;;;5135728;27;20568;-65
2022/06/05 03:54:15;;;;;;;9.20;7.47;;;17.30;99.90;;;;;;5135906;27;20888;-64
2022/06/05 03:56:42;;;;;;;9.60;7.90;;;17.30;99.90;;;;;;5134522;27;20967;-64
2022/06/05 03:59:08;;;;;;;7.83;7.03;;;17.20;99.90;;;;;;5135518;27;20525;-64
2022/06/05 04:01:36;;;;;;;8.13;7.30;;;17.30;99.90;;;;;;5136220;27;20444;-64
2022/06/05 04:04:03;;;;;;;8.40;7.43;;;17.20;99.90;;;;;;5135866;27;20445;-64
2022/06/05 04:06:32;;;;;;;7.83;7.13;;;17.30;99.90;;;;;;5136661;27;20464;-64
2022/06/05 04:09:01;;;;;;;8.27;7.47;;;17.30;99.90;;;;;;5135633;27;20921;-64
2022/06/05 04:11:30;;;;;;;9.83;8.83;;;17.20;99.90;;;;;;5136594;27;20461;-64
2022/06/05 04:13:57;;;;;;;10.53;9.53;;;17.20;99.90;;;;;;5134888;27;20440;-65
2022/06/05 04:16:26;;;;;;;9.30;7.90;;;17.20;99.90;;;;;;5136293;27;20433;-65
2022/06/05 04:18:54;;;;;;;9.73;7.13;;;17.20;99.90;;;;;;5135236;27;20524;-64
2022/06/05 04:21:25;;;;;;;8.10;7.30;;;17.30;99.90;;;;;;5135070;27;20939;-64
2022/06/05 04:23:54;;;;;;;7.80;5.77;;;17.30;99.90;;;;;;5135263;27;20476;-64
2022/06/05 04:26:23;;;;;;;6.67;6.07;;;17.30;99.90;;;;;;5136050;27;20437;-64
2022/06/05 04:28:52;;;;;;;7.23;5.80;;;17.30;99.90;;;;;;5134912;27;20490;-64
2022/06/05 04:31:22;;;;;;;6.63;5.93;;;17.20;99.90;;;;;;5135787;27;20835;-65
2022/06/05 04:33:50;;;;;;;7.13;6.27;;;17.20;99.90;;;;;;5135500;27;20516;-64
2022/06/05 04:36:17;;;;;;;7.10;6.40;;;17.20;99.90;;;;;;5136103;27;20487;-65
2022/06/05 04:38:44;;;;;;;6.93;6.33;;;17.20;99.90;;;;;;5134870;27;20841;-65
2022/06/05 04:41:13;;;;;;;10.77;6.80;;;17.30;99.90;;;;;;5135942;27;20529;-64
2022/06/05 04:43:40;;;;;;;8.93;7.10;;;17.20;99.90;;;;;;5134604;27;20452;-64
2022/06/05 04:46:07;;;;;;;8.93;8.07;;;17.30;99.90;;;;;;5135360;27;20527;-65
2022/06/05 04:48:34;;;;;;;10.17;8.30;;;17.30;99.90;;;;;;5133254;27;20437;-64
2022/06/05 04:51:04;;;;;;;8.03;7.17;;;17.40;99.90;;;;;;5135662;27;20430;-64
2022/06/05 04:53:31;;;;;;;10.73;8.20;;;17.50;99.90;;;;;;5134173;27;20506;-66
2022/06/05 04:55:59;;;;;;;8.57;7.67;;;17.60;99.90;;;;;;5132803;27;20425;-64
2022/06/05 04:58:27;;;;;;;9.60;7.57;;;17.70;99.90;;;;;;5132899;27;20528;-65
2022/06/05 05:00:54;;;;;;;9.40;7.23;;;17.80;99.90;;;;;;5133445;27;20455;-65
2022/06/05 05:03:21;;;;;;;9.43;7.30;;;18.00;99.90;;;;;;5132406;27;20430;-64
2022/06/05 05:05:48;;;;;;;8.20;6.80;;;18.10;99.90;;;;;;5132654;27;20440;-64
2022/06/05 05:08:15;;;;;;;9.77;8.77;;;18.30;99.90;;;;;;5132907;27;20440;-64
2022/06/05 05:10:42;;;;;;;11.13;7.57;;;18.40;99.90;;;;;;5133451;27;20440;-66
2022/06/05 05:13:09;;;;;;;9.17;8.17;;;18.50;99.90;;;;;;5131899;27;20476;-65
2022/06/05 05:15:37;;;;;;;9.07;8.17;;;18.60;99.90;;;;;;5133564;27;20437;-64
2022/06/05 05:18:04;;;;;;;10.17;8.60;;;18.60;99.90;;;;;;5132373;27;20447;-64
2022/06/05 05:20:31;;;;;;;9.63;8.63;;;18.80;99.90;;;;;;5133213;27;20911;-65
2022/06/05 05:22:58;;;;;;;8.47;7.57;;;18.80;99.90;;;;;;5127977;27;20520;-64
2022/06/05 05:25:25;;;;;;;9.43;8.53;;;19.00;99.90;;;;;;5132454;27;20438;-65
2022/06/05 05:27:52;;;;;;;11.13;7.73;;;19.10;99.90;;;;;;5133213;27;20433;-65
2022/06/05 05:30:19;;;;;;;8.70;7.20;;;19.20;99.90;;;;;;5132872;27;20432;-65
2022/06/05 05:32:48;;;;;;;9.40;7.87;;;19.30;99.90;;;;;;5132024;27;20476;-64
2022/06/05 05:35:14;;;;;;;7.40;6.70;;;19.30;99.90;;;;;;5133230;27;20539;-66
2022/06/05 05:37:41;;;;;;;7.90;7.17;;;19.40;99.90;;;;;;5131557;27;20907;-65
2022/06/05 05:42:56;;;;;;;6.70;6.00;;;19.60;99.90;;;;;;5131903;27;20425;-65
2022/06/05 05:45:23;;;;;;;11.73;5.90;;;19.70;99.90;;;;;;5132546;27;20437;-65
2022/06/05 05:47:51;;;;;;;9.77;6.37;;;19.80;99.90;;;;;;5132029;27;20443;-65
2022/06/05 05:50:18;;;;;;;11.10;6.90;;;19.90;99.90;;;;;;5131892;27;20432;-65
2022/06/05 05:52:45;;;;;;;7.63;6.00;;;20.00;99.90;;;;;;5132665;27;20476;-66
2022/06/05 05:55:14;;;;;;;6.13;4.77;;;20.10;99.90;;;;;;5131971;27;20436;-66
2022/06/05 05:57:42;;;;;;;7.63;6.50;;;20.20;99.90;;;;;;5132700;27;20448;-65
2022/06/05 06:00:12;;;;;;;6.63;5.93;;;20.30;99.90;;;;;;5131833;27;20489;-64
2022/06/05 06:02:39;;;;;;;6.70;5.07;;;20.40;99.90;;;;;;5132203;27;20437;-65
2022/06/05 06:05:12;;;;;;;5.67;5.17;;;20.50;99.90;;;;;;5131846;27;20429;-65
2022/06/05 06:07:39;;;;;;;11.70;6.23;;;20.60;99.90;;;;;;5132761;27;20437;-66
2022/06/05 06:10:07;;;;;;;6.90;5.50;;;20.70;99.90;;;;;;5131503;27;21045;-71
2022/06/05 06:12:34;;;;;;;6.73;6.00;;;20.80;99.90;;;;;;5132513;27;20480;-64
2022/06/05 06:15:01;;;;;;;7.17;5.50;;;20.90;99.90;;;;;;5132735;27;20974;-65
2022/06/05 06:17:28;;;;;;;7.80;5.43;;;21.10;99.90;;;;;;5124116;27;20472;-64
2022/06/05 06:19:55;;;;;;;10.70;6.73;;;21.20;99.80;;;;;;5131414;27;20524;-65
2022/06/05 06:22:23;;;;;;;7.27;5.80;;;21.30;99.60;;;;;;5131485;27;20435;-65
2022/06/05 06:24:50;;;;;;;6.70;5.80;;;21.40;99.40;;;;;;5131868;27;20842;-65
2022/06/05 06:27:17;;;;;;;5.97;4.67;;;21.50;99.30;;;;;;5131924;28;20533;-66
2022/06/05 06:29:44;;;;;;;8.67;5.53;;;21.60;99.10;;;;;;5131447;27;20867;-69
2022/06/05 06:32:11;;;;;;;8.77;4.77;;;21.70;98.70;;;;;;5128493;28;20475;-65
2022/06/05 06:34:38;;;;;;;6.40;4.97;;;21.80;98.40;;;;;;5132455;27;20434;-66
2022/06/05 06:37:05;;;;;;;6.67;5.07;;;22.00;98.20;;;;;;5131714;27;20445;-65
2022/06/05 06:39:33;;;;;;;6.07;5.47;;;22.20;97.40;;;;;;5129653;27;20520;-67
2022/06/05 06:42:01;;;;;;;4.40;3.90;;;22.40;96.60;;;;;;5130373;28;20429;-65
2022/06/05 06:44:28;;;;;;;8.23;5.07;;;22.40;95.60;;;;;;5131608;27;20437;-65
2022/06/05 06:46:55;;;;;;;6.30;4.47;;;22.50;95.70;;;;;;5131392;27;20802;-65
2022/06/05 06:49:22;;;;;;;5.87;4.20;;;22.50;94.70;;;;;;5131856;27;20457;-66
2022/06/05 06:51:49;;;;;;;8.20;4.20;;;22.60;94.20;;;;;;5131211;27;20445;-66
2022/06/05 06:54:16;;;;;;;26.53;5.30;;;22.60;93.80;;;;;;5126948;28;20473;-67
2022/06/05 06:56:45;;;;;;;5.00;3.97;;;22.60;93.70;;;;;;5131185;27;20517;-67
2022/06/05 06:59:12;;;;;;;7.13;3.93;;;22.70;93.70;;;;;;5127454;27;20784;-65
2022/06/05 07:01:40;;;;;;;6.83;4.50;;;22.80;93.60;;;;;;5131122;27;20441;-65
2022/06/05 07:04:07;;;;;;;4.90;4.10;;;22.80;93.30;;;;;;5127490;27;20427;-65
2022/06/05 07:06:34;;;;;;;9.63;4.40;;;23.00;93.50;;;;;;5130395;27;20438;-66
2022/06/05 07:09:00;;;;;;;6.17;3.90;;;23.10;92.40;;;;;;5131499;27;20479;-66
2022/06/05 07:11:27;;;;;;;7.03;4.20;;;23.20;91.60;;;;;;5131231;27;20925;-65
2022/06/05 07:13:57;;;;;;;5.90;4.53;;;23.30;90.90;;;;;;5131808;27;20523;-67
2022/06/05 07:16:24;;;;;;;7.90;5.00;;;23.40;90.60;;;;;;5131427;28;20520;-66
2022/06/05 07:18:50;;;;;;;7.13;4.03;;;23.40;90.40;;;;;;5131911;27;20448;-65
2022/06/05 07:21:19;;;;;;;8.70;4.70;;;23.60;90.50;;;;;;5131799;27;20491;-65
2022/06/05 07:23:46;;;;;;;15.93;4.57;;;23.70;90.50;;;;;;5131918;27;20443;-66
2022/06/05 07:26:14;;;;;;;12.53;4.00;;;23.90;90.30;;;;;;5131645;27;20435;-67
2022/06/05 07:28:42;;;;;;;6.73;4.47;;;24.00;90.20;;;;;;5131948;27;20438;-65
2022/06/05 07:31:11;;;;;;;6.37;4.87;;;24.20;90.10;;;;;;5132930;27;20986;-66
2022/06/05 07:33:39;;;;;;;5.43;4.20;;;24.30;88.70;;;;;;5135009;27;20553;-66
2022/06/05 07:36:09;;;;;;;7.20;4.83;;;24.50;88.30;;;;;;5135344;27;20924;-65
2022/06/05 07:38:36;;;;;;;10.10;5.23;;;24.80;88.80;;;;;;5135260;27;20446;-65
2022/06/05 07:41:04;;;;;;;7.00;3.73;;;25.10;87.40;;;;;;5135290;27;20525;-68
2022/06/05 07:43:31;;;;;;;5.23;4.33;;;25.40;86.20;;;;;;5130362;27;20907;-65
2022/06/05 07:46:02;;;;;;;6.03;4.07;;;25.50;83.60;;;;;;5134034;27;20468;-65
2022/06/05 07:48:31;;;;;;;7.43;4.83;;;25.60;81.00;;;;;;5132038;27;20485;-65
2022/06/05 07:56:32;;;;;;;8.00;5.10;;;25.70;77.00;;;;;;5134793;27;20934;-65
2022/06/05 07:58:59;;;;;;;4.80;4.17;;;25.80;76.00;;;;;;5134313;27;20445;-65
2022/06/05 08:01:26;;;;;;;7.60;4.37;;;25.90;76.10;;;;;;5132077;27;20432;-65
2022/06/05 08:03:54;;;;;;;7.77;5.10;;;26.00;74.90;;;;;;5133955;27;20452;-65
2022/06/05 08:06:21;;;;;;;7.97;4.80;;;26.10;74.00;;;;;;5132263;27;20516;-65
2022/06/05 08:08:48;;;;;;;9.00;4.90;;;26.10;73.70;;;;;;5132555;27;20443;-65
2022/06/05 08:11:15;;;;;;;8.47;5.40;;;26.00;72.90;;;;;;5134253;27;20440;-66
2022/06/05 08:13:42;;;;;;;9.83;5.03;;;25.80;72.80;;;;;;5134600;27;20484;-65
2022/06/05 08:16:11;;;;;;;8.53;4.97;;;25.70;72.90;;;;;;5133676;27;20448;-65
2022/06/05 08:18:38;;;;;;;7.27;4.30;;;25.60;73.30;;;;;;5132778;27;20776;-66
2022/06/05 08:21:07;;;;;;;9.47;5.00;;;25.50;74.00;;;;;;5133544;27;20439;-68
2022/06/05 08:23:33;;;;;;;4.97;4.23;;;25.50;74.30;;;;;;5133595;27;20882;-65
2022/06/05 08:26:01;;;;;;;7.17;4.60;;;25.50;73.00;;;;;;5133939;27;20462;-66
2022/06/05 08:28:28;;;;;;;6.93;3.93;;;25.40;72.80;;;;;;5128839;27;20439;-66
2022/06/05 08:30:55;;;;;;;8.13;4.80;;;25.30;72.60;;;;;;5132486;27;20436;-65
2022/06/05 08:33:23;;;;;;;9.03;6.40;;;25.30;72.60;;;;;;5133652;27;20465;-65
2022/06/05 08:35:50;;;;;;;5.03;4.00;;;25.20;72.90;;;;;;5131468;27;20447;-67
2022/06/05 08:41:30;;;;;;;5.63;3.87;;;25.00;73.00;;;;;;5072021;28;20513;-65
2022/06/05 08:44:06;;;;;;;8.70;4.23;;;24.90;73.80;;;;;;5071577;28;20439;-65
2022/06/05 08:46:39;;;;;;;8.83;4.60;;;24.90;74.30;;;;;;5072323;28;20435;-65
2022/06/05 08:49:11;;;;;;;5.80;4.03;;;24.80;74.50;;;;;;5071257;28;20446;-65
2022/06/05 08:51:52;;;;;;;5.53;4.60;;;24.80;74.70;;;;;;5066293;28;20519;-66
2022/06/05 08:54:25;;;;;;;6.40;4.00;;;24.90;75.00;;;;;;5070932;28;20844;-65
2022/06/05 08:56:59;;;;;;;9.53;4.90;;;24.80;75.40;;;;;;5071451;28;20458;-65
2022/06/05 08:59:30;;;;;;;4.43;4.03;;;24.80;75.80;;;;;;5067987;28;20537;-66
2022/06/05 09:02:02;;;;;;;6.20;4.70;;;24.80;75.80;;;;;;5063503;28;20781;-70
2022/06/05 09:04:45;;;;;;;4.83;4.13;;;24.80;75.40;;;;;;5065208;28;20435;-66
2022/06/05 09:07:16;;;;;;;6.13;4.50;;;24.80;75.20;;;;;;5066670;28;20498;-64
2022/06/05 09:09:49;;;;;;;6.90;5.30;;;24.90;75.50;;;;;;5064721;28;20864;-65
2022/06/05 09:12:28;;;;;;;6.63;5.90;;;24.80;74.50;;;;;;5056310;28;21104;-65
2022/06/05 09:15:01;;;;;;;13.13;9.10;;;24.70;74.70;;;;;;5069825;28;20490;-65
2022/06/05 09:17:29;;;;;;;7.10;6.40;;;24.70;74.60;;;;;;5060904;28;20952;-65
2022/06/05 09:19:58;;;;;;;6.17;5.13;;;24.70;74.70;;;;;;5071737;28;20952;-65
2022/06/05 09:22:35;;;;;;;8.50;5.67;;;24.70;74.70;;;;;;5064096;28;20451;-65
2022/06/05 09:25:26;;;;;;;8.37;5.30;;;24.70;74.80;;;;;;5068204;28;20821;-65
2022/06/05 09:28:05;;;;;;;8.40;5.60;;;24.60;74.70;;;;;;5071800;28;20521;-65
2022/06/05 09:30:39;;;;;;;7.90;5.57;;;24.60;75.10;;;;;;5066311;28;20916;-65
2022/06/05 09:33:16;;;;;;;8.10;6.10;;;24.60;75.50;;;;;;5065000;28;20909;-64
2022/06/05 09:35:47;;;;;;;8.43;5.17;;;24.60;75.40;;;;;;5070908;28;20443;-65
2022/06/05 09:38:19;;;;;;;5.80;5.20;;;24.60;75.40;;;;;;5057535;28;20450;-65
2022/06/05 09:41:03;;;;;;;6.40;4.90;;;24.70;75.80;;;;;;5068177;28;20448;-65
2022/06/05 09:43:53;;;;;;;6.60;5.33;;;24.70;75.90;;;;;;5068996;28;20436;-67
2022/06/05 09:46:43;;;;;;;6.17;5.20;;;24.90;76.70;;;;;;5068368;28;20465;-65
2022/06/05 09:49:17;;;;;;;7.17;5.70;;;25.10;76.70;;;;;;5063736;28;21022;-65
2022/06/05 09:51:45;;;;;;;5.33;4.83;;;25.30;76.00;;;;;;5061545;28;20452;-65
2022/06/05 09:54:20;;;;;;;6.63;5.10;;;25.60;74.00;;;;;;5067786;28;20584;-66
2022/06/05 10:00:00;;;;;;;5.90;4.77;;;26.20;70.70;;;;;;5015160;28;20433;-65
2022/06/05 10:02:29;;;;;;;5.30;4.80;;;26.50;70.90;;;;;;5065057;28;20446;-65
2022/06/05 10:04:56;;;;;;;6.53;5.27;;;26.80;71.40;;;;;;5067322;28;20455;-65
2022/06/05 10:07:29;;;;;;;7.93;5.40;;;27.10;68.70;;;;;;5069467;28;20539;-65
2022/06/05 10:09:56;;;;;;;4.77;4.27;;;27.50;69.50;;;;;;5063571;28;20550;-65
2022/06/05 10:12:29;;;;;;;8.30;6.57;;;27.90;68.00;;;;;;5070391;28;20517;-65
2022/06/05 10:15:03;;;;;;;5.93;4.63;;;28.20;65.40;;;;;;5067813;28;20571;-66
2022/06/05 10:17:48;;;;;;;5.30;4.33;;;28.50;66.00;;;;;;5065882;28;20843;-66
2022/06/05 10:20:44;;;;;;;5.13;4.30;;;28.80;62.60;;;;;;5068500;28;20448;-66
2022/06/05 10:23:23;;;;;;;7.20;5.10;;;28.90;62.10;;;;;;5062101;28;20483;-65
2022/06/05 10:25:57;;;;;;;6.03;4.73;;;29.20;60.90;;;;;;5066084;28;20487;-65
2022/06/05 10:28:27;;;;;;;11.17;5.50;;;29.40;59.30;;;;;;5065153;28;20816;-65
2022/06/05 10:30:58;;;;;;;6.90;5.30;;;29.60;58.20;;;;;;5063689;28;20446;-69
2022/06/05 10:33:43;;;;;;;5.37;4.70;;;29.60;58.30;;;;;;5068137;28;20880;-66
2022/06/05 10:36:17;;;;;;;6.03;5.00;;;29.50;58.00;;;;;;5064478;28;20457;-65
2022/06/05 10:38:55;;;;;;;5.47;4.47;;;29.50;57.70;;;;;;5069661;28;20911;-66
2022/06/05 10:41:33;;;;;;;6.57;4.60;;;29.60;57.30;;;;;;5068905;28;20463;-65
2022/06/05 10:44:19;;;;;;;7.43;4.60;;;29.70;57.70;;;;;;5070024;28;20493;-65
2022/06/05 10:47:02;;;;;;;9.43;5.40;;;29.80;57.60;;;;;;5066582;28;20455;-65
2022/06/05 10:49:41;;;;;;;5.50;4.70;;;29.80;57.50;;;;;;5067715;28;20474;-66
2022/06/05 10:52:20;;;;;;;6.70;5.80;;;29.80;57.70;;;;;;5062915;28;20451;-69
2022/06/05 10:54:53;;;;;;;7.53;5.50;;;29.60;56.50;;;;;;5063957;28;20491;-69
2022/06/05 10:57:26;;;;;;;8.10;4.90;;;29.50;56.40;;;;;;5058769;28;20440;-66
2022/06/05 11:00:02;;;;;;;5.23;4.73;;;29.50;58.00;;;;;;5068572;28;20786;-67
2022/06/05 11:03:01;;;;;;;7.30;4.87;;;29.40;57.50;;;;;;5064971;28;20478;-65
2022/06/05 11:05:55;;;;;;;8.20;5.13;;;29.50;56.70;;;;;;5068453;28;20443;-66
2022/06/05 11:08:32;;;;;;;5.30;4.80;;;29.40;55.40;;;;;;5072710;28;20510;-65
2022/06/05 11:14:09;;;;;;;6.30;5.60;;;29.50;57.40;;;;;;5061841;28;20478;-66
2022/06/05 11:16:43;;;;;;;6.70;5.20;;;29.30;54.30;;;;;;5065926;28;20851;-66
2022/06/05 11:19:16;;;;;;;7.53;5.10;;;29.10;55.00;;;;;;5066162;28;20448;-65
2022/06/05 11:21:44;;;;;;;5.87;4.10;;;29.00;55.10;;;;;;5069351;28;20447;-65
2022/06/05 11:24:27;;;;;;;4.80;4.30;;;29.00;57.70;;;;;;5070960;28;20531;-65
2022/06/05 11:27:07;;;;;;;5.43;4.47;;;29.10;56.80;;;;;;5067310;28;20439;-67
2022/06/05 11:29:43;;;;;;;5.33;4.83;;;29.40;57.10;;;;;;5067814;28;20462;-65
2022/06/05 11:32:36;;;;;;;5.83;4.40;;;29.40;53.90;;;;;;5070931;28;20451;-67
2022/06/05 11:35:24;;;;;;;5.90;4.40;;;29.50;55.90;;;;;;5073281;28;20906;-66
2022/06/05 11:37:58;;;;;;;9.83;4.57;;;29.70;56.10;;;;;;5074116;28;20436;-65
2022/06/05 11:40:42;;;;;;;5.37;4.73;;;29.80;55.00;;;;;;5068921;28;20517;-65
2022/06/05 11:43:32;;;;;;;7.37;4.40;;;29.80;53.40;;;;;;5068367;28;20444;-66
2022/06/05 11:46:05;;;;;;;10.87;4.50;;;29.80;54.00;;;;;;5068502;28;20444;-67
2022/06/05 11:48:39;;;;;;;6.63;4.60;;;29.90;52.90;;;;;;5064241;28;20454;-65
2022/06/05 11:51:14;;;;;;;6.57;5.03;;;30.20;53.40;;;;;;5073395;28;20946;-65
2022/06/05 11:53:48;;;;;;;7.60;4.93;;;30.30;52.40;;;;;;5063238;28;20515;-65
2022/06/05 11:56:35;;;;;;;4.43;4.03;;;30.40;52.50;;;;;;5068045;28;20465;-66
2022/06/05 11:59:13;;;;;;;8.90;4.90;;;30.50;51.90;;;;;;5072661;28;20432;-65
2022/06/05 12:01:45;;;;;;;7.90;4.73;;;30.60;52.50;;;;;;5060587;28;20532;-65
2022/06/05 12:04:21;;;;;;;11.20;4.50;;;30.60;51.10;;;;;;5068896;28;20440;-65
2022/06/05 12:06:52;;;;;;;11.23;4.13;;;30.60;51.30;;;;;;5067460;28;20449;-67
2022/06/05 12:09:22;;;;;;;5.43;4.17;;;30.50;51.80;;;;;;5059652;28;20509;-66
2022/06/05 12:11:56;;;;;;;7.27;4.60;;;30.50;51.60;;;;;;5064058;28;20914;-65
2022/06/05 12:14:28;;;;;;;6.63;3.53;;;30.50;51.40;;;;;;5059057;28;20562;-66
2022/06/05 12:17:07;;;;;;;7.00;4.13;;;30.50;51.00;;;;;;5065502;28;20438;-70
2022/06/05 12:19:47;;;;;;;6.70;4.73;;;30.50;51.40;;;;;;5068016;28;20451;-65
2022/06/05 12:22:21;;;;;;;6.30;4.70;;;30.50;51.00;;;;;;5064002;28;20546;-65
2022/06/05 12:24:53;;;;;;;4.83;3.97;;;30.50;51.20;;;;;;5061770;28;20439;-65
2022/06/05 12:27:20;;;;;;;6.70;4.60;;;30.60;51.50;;;;;;5064018;28;20485;-70
2022/06/05 12:29:53;;;;;;;7.73;4.37;;;30.60;51.00;;;;;;5060223;28;20491;-66
2022/06/05 12:32:30;;;;;;;5.87;5.27;;;30.80;52.00;;;;;;5063591;28;20448;-66
2022/06/05 12:35:06;;;;;;;7.70;5.30;;;30.80;51.50;;;;;;5057095;28;20480;-67
2022/06/05 12:37:40;;;;;;;7.03;5.47;;;30.60;52.50;;;;;;5066004;28;20459;-67
2022/06/05 12:40:16;;;;;;;6.90;5.57;;;30.60;52.70;;;;;;5060848;28;20543;-66
2022/06/05 12:42:50;;;;;;;7.90;5.13;;;30.50;51.70;;;;;;5060783;28;20846;-65
2022/06/05 12:45:21;;;;;;;8.50;5.03;;;30.30;51.80;;;;;;5054541;28;20456;-65
2022/06/05 12:48:11;;;;;;;9.20;4.80;;;30.10;52.50;;;;;;5057474;28;20519;-65
2022/06/05 12:50:48;;;;;;;6.33;5.73;;;29.80;52.40;;;;;;5061412;28;20501;-65
2022/06/05 12:53:28;;;;;;;6.73;6.00;;;29.60;52.20;;;;;;5058882;28;20504;-65
2022/06/05 12:56:06;;;;;;;10.23;5.70;;;29.20;52.70;;;;;;5056057;28;20572;-65
2022/06/05 12:58:47;;;;;;;8.60;5.10;;;28.90;53.60;;;;;;5053204;28;20451;-66
2022/06/05 13:01:20;;;;;;;7.23;4.90;;;28.60;54.00;;;;;;5059576;28;20460;-66
2022/06/05 13:03:53;;;;;;;6.77;5.40;;;28.40;54.50;;;;;;5062782;28;20925;-69
2022/06/05 13:06:38;;;;;;;5.83;4.37;;;28.10;54.80;;;;;;5059633;28;20874;-65
2022/06/05 13:09:14;;;;;;;7.00;5.27;;;27.80;55.70;;;;;;5058506;28;20543;-66
2022/06/05 13:11:46;;;;;;;8.93;6.73;;;27.50;56.10;;;;;;5064313;28;20467;-65
2022/06/05 13:14:25;;;;;;;10.57;6.07;;;27.10;57.70;;;;;;5063286;28;20471;-67
2022/06/05 13:17:09;;;;;;;11.40;6.67;;;26.90;59.40;;;;;;5060507;28;20475;-65
2022/06/05 13:19:42;;;;;;;9.87;6.97;;;26.60;63.20;;;;;;5063231;28;20840;-65
2022/06/05 13:22:15;;;;;;;11.37;7.60;;;26.30;63.90;;;;;;5063235;28;20450;-64
2022/06/05 13:24:53;;;;;;;8.90;8.00;;;26.00;66.40;;;;;;5057289;28;20467;-65
2022/06/05 13:27:30;;;;;;;18.03;9.20;;;25.70;68.10;;;;;;5058176;28;20530;-65
2022/06/05 13:30:04;;;;;;;13.20;8.90;;;25.50;70.00;;;;;;5053614;28;20479;-65